If you wish to contribute or participate in the discussions about articles you are invited to join SKYbrary as a registered user

 Actions

Mont-de-Marsan (BA 118) Air Base

From SKYbrary Wiki

LFBM
Airport
ICAO: LFBM
Summary
Name Mont-de-Marsan (BA 118) Air Base
Region Europe
Territory France FR.gif
Location , Aquitaine
Serving Mont-de-marsan
Elevation 61.874 m
203 ft
203 ft61.874 m
Type medium airport
Coordinates 43° 54' 42.00" N, 0° 30' 27.00" W
Runways
Designator Length Width Surface ROPS
9/27 3603 m11,820.866 ft
45 m147.638 ft
PEM /


METAR
Observation LFBM 101330Z AUTO 16005KT 130V190 9999 SCT022 13/07 Q1026 NOSIG
Station Mont-De-Marsan
Date/Time 10 December 2019 13:30:00
Wind direction 160°
Wind speed 05 kts
Lowest cloud amount scattered clouds
Temperature 13°C
Dew point 7°C
Humidity 66%
QNH 1026 hPa
Weather condition n/a